Time;durP1;ratioP1;P1;durP2;ratioP2;P2;SDS_P1;SDS_P2;PMS_P1;PMS_P2;Temp;Humidity;BMP_temperature;BMP_pressure;BME280_temperature;BME280_humidity;BME280_pressure;Samples;Min_cycle;Max_cycle;Signal;HPM_P1;HPM_P2
2021/08/09 00:01:45;;;;;;;2.20;2.10;;;22.30;32.20;;;;;;5054097;28;20179;-66
2021/08/09 00:04:11;;;;;;;2.93;2.67;;;22.30;32.20;;;;;;5054236;28;20172;-66
2021/08/09 00:06:36;;;;;;;3.60;2.77;;;22.30;32.10;;;;;;5053814;28;20199;-66
2021/08/09 00:09:03;;;;;;;2.63;2.43;;;22.30;32.20;;;;;;5054140;28;20208;-66
2021/08/09 00:11:29;;;;;;;3.40;2.70;;;22.30;32.20;;;;;;5053881;28;20314;-66
2021/08/09 00:13:55;;;;;;;2.90;2.70;;;22.20;32.10;;;;;;5053961;28;20411;-66
2021/08/09 00:16:20;;;;;;;4.10;2.60;;;22.30;32.30;;;;;;5053521;28;20468;-66
2021/08/09 00:18:47;;;;;;;2.50;2.00;;;22.20;32.20;;;;;;5053923;28;20542;-66
2021/08/09 00:21:14;;;;;;;3.03;2.60;;;22.20;33.10;;;;;;5053861;28;20175;-66
2021/08/09 00:23:40;;;;;;;3.93;2.70;;;22.20;32.40;;;;;;5053785;28;20789;-66
2021/08/09 00:26:06;;;;;;;3.53;2.60;;;22.20;32.50;;;;;;5053325;28;20426;-66
2021/08/09 00:28:31;;;;;;;2.90;2.27;;;22.20;32.50;;;;;;5053899;28;20180;-66
2021/08/09 00:30:57;;;;;;;2.47;1.80;;;22.20;32.50;;;;;;5053558;28;20175;-66
2021/08/09 00:33:22;;;;;;;2.13;2.03;;;22.20;32.50;;;;;;5053687;28;20180;-66
2021/08/09 00:35:48;;;;;;;2.87;2.30;;;22.20;32.70;;;;;;5053282;28;20601;-66
2021/08/09 00:38:13;;;;;;;2.80;2.53;;;22.20;32.60;;;;;;5053628;28;20545;-66
2021/08/09 00:40:39;;;;;;;4.53;2.80;;;22.20;32.60;;;;;;5053487;28;20235;-66
2021/08/09 00:43:04;;;;;;;2.40;2.30;;;22.20;32.70;;;;;;5053379;28;20581;-66
2021/08/09 00:45:30;;;;;;;2.33;2.23;;;22.20;32.60;;;;;;5053247;28;20577;-66
2021/08/09 00:47:56;;;;;;;2.10;1.87;;;22.20;32.60;;;;;;5053288;28;20221;-66
2021/08/09 00:50:21;;;;;;;2.77;2.40;;;22.20;32.70;;;;;;5053371;28;20176;-66
2021/08/09 00:52:47;;;;;;;2.10;2.00;;;22.20;32.70;;;;;;5053338;28;20203;-66
2021/08/09 00:55:13;;;;;;;2.43;2.33;;;22.20;32.70;;;;;;5052893;28;20176;-66
2021/08/09 00:57:39;;;;;;;1.93;1.83;;;22.20;32.70;;;;;;5053168;28;20184;-66
2021/08/09 01:00:06;;;;;;;2.63;2.43;;;22.20;32.70;;;;;;5053087;28;20399;-66
2021/08/09 01:02:31;;;;;;;2.97;2.40;;;22.20;32.80;;;;;;5052944;28;20462;-66
2021/08/09 01:05:01;;;;;;;2.63;2.43;;;22.20;32.70;;;;;;5052402;28;20783;-66
2021/08/09 01:07:34;;;;;;;3.23;2.73;;;22.20;32.70;;;;;;5052799;28;20619;-66
2021/08/09 01:10:10;;;;;;;2.47;2.30;;;22.20;32.80;;;;;;5052891;28;20495;-66
2021/08/09 01:12:48;;;;;;;2.40;2.20;;;22.20;32.80;;;;;;5052815;28;20417;-66
2021/08/09 01:15:35;;;;;;;3.13;2.80;;;22.20;32.90;;;;;;5052510;28;20777;-66
2021/08/09 01:18:03;;;;;;;2.70;2.20;;;22.20;32.90;;;;;;5052657;28;20472;-66
2021/08/09 01:20:48;;;;;;;3.83;1.97;;;22.20;33.00;;;;;;5052650;28;20501;-66
2021/08/09 01:23:28;;;;;;;2.53;2.33;;;22.20;32.90;;;;;;5052578;28;20972;-66
2021/08/09 01:25:58;;;;;;;2.97;2.73;;;22.20;32.90;;;;;;5052354;28;20867;-66
2021/08/09 01:28:29;;;;;;;2.00;1.90;;;22.20;32.90;;;;;;5052618;28;20468;-66
2021/08/09 01:34:18;;;;;;;2.30;2.20;;;22.10;32.90;;;;;;5052683;28;20999;-66
2021/08/09 01:36:46;;;;;;;2.80;2.60;;;22.10;32.80;;;;;;5052083;28;20949;-66
2021/08/09 01:39:14;;;;;;;2.30;2.10;;;22.10;32.80;;;;;;5052354;28;20430;-66
2021/08/09 01:41:41;;;;;;;2.70;2.50;;;22.10;32.90;;;;;;5052377;28;20417;-66
2021/08/09 01:44:08;;;;;;;2.43;2.23;;;22.10;33.00;;;;;;5052301;28;20923;-66
2021/08/09 01:46:34;;;;;;;2.23;2.13;;;22.10;32.90;;;;;;5051955;28;20445;-66
2021/08/09 01:49:02;;;;;;;2.10;2.00;;;22.10;33.00;;;;;;5052254;28;20784;-66
2021/08/09 01:51:29;;;;;;;2.40;2.13;;;22.10;33.00;;;;;;5052070;28;20755;-66
2021/08/09 01:53:54;;;;;;;2.73;2.57;;;22.10;32.90;;;;;;5052408;28;20426;-66
2021/08/09 01:56:21;;;;;;;2.23;2.03;;;22.10;32.90;;;;;;5051780;28;20474;-66
2021/08/09 01:58:48;;;;;;;3.40;2.40;;;22.10;33.00;;;;;;5051975;28;20184;-66
2021/08/09 02:01:13;;;;;;;2.40;2.20;;;22.10;33.00;;;;;;5052018;28;20441;-66
2021/08/09 02:03:39;;;;;;;2.33;2.20;;;22.10;32.90;;;;;;5052286;28;20917;-65
2021/08/09 02:06:05;;;;;;;2.20;2.10;;;22.10;33.00;;;;;;5051545;28;20219;-65
2021/08/09 02:08:31;;;;;;;1.80;1.70;;;22.10;33.00;;;;;;5034098;28;20184;-66
2021/08/09 02:11:07;;;;;;;1.80;1.70;;;22.10;33.00;;;;;;5052064;28;20240;-66
2021/08/09 02:13:39;;;;;;;2.20;2.10;;;22.10;33.00;;;;;;5051912;28;20410;-66
2021/08/09 02:16:17;;;;;;;2.43;2.33;;;22.10;33.00;;;;;;5050906;28;20524;-66
2021/08/09 02:18:52;;;;;;;2.80;2.30;;;22.10;33.00;;;;;;5051825;28;20745;-66
2021/08/09 02:21:25;;;;;;;2.00;1.90;;;22.10;33.10;;;;;;5051794;28;20410;-66
2021/08/09 02:23:55;;;;;;;2.23;2.13;;;22.10;33.00;;;;;;5051812;28;20402;-66
2021/08/09 02:26:48;;;;;;;2.30;2.20;;;22.10;33.00;;;;;;5051459;28;20513;-65
2021/08/09 02:29:20;;;;;;;2.17;1.97;;;22.10;33.00;;;;;;5050537;28;20445;-65
2021/08/09 02:31:47;;;;;;;2.33;2.23;;;22.10;33.10;;;;;;5051630;28;20410;-65
2021/08/09 02:34:15;;;;;;;2.07;1.90;;;22.10;33.10;;;;;;5051717;28;20413;-65
2021/08/09 02:36:42;;;;;;;2.50;2.40;;;22.10;33.00;;;;;;5051327;28;20458;-65
2021/08/09 02:39:08;;;;;;;2.20;2.10;;;22.10;33.10;;;;;;5051685;28;20409;-65
2021/08/09 02:41:35;;;;;;;3.67;2.40;;;22.10;33.10;;;;;;5051488;28;20415;-65
2021/08/09 02:44:01;;;;;;;3.10;2.10;;;22.00;32.90;;;;;;5051568;28;20442;-65
2021/08/09 02:46:27;;;;;;;2.63;2.43;;;22.10;33.00;;;;;;5033417;28;20446;-65
2021/08/09 02:48:53;;;;;;;2.17;2.07;;;22.00;32.90;;;;;;5051609;28;20414;-65
2021/08/09 02:51:19;;;;;;;2.00;1.90;;;22.00;33.00;;;;;;5051445;28;20757;-65
2021/08/09 02:53:49;;;;;;;1.90;1.80;;;22.00;33.00;;;;;;5051550;28;20446;-65
2021/08/09 02:56:17;;;;;;;2.30;2.20;;;22.00;33.00;;;;;;5050944;28;20517;-66
2021/08/09 02:58:43;;;;;;;2.60;2.40;;;22.00;32.90;;;;;;5051361;28;20438;-66
2021/08/09 03:01:09;;;;;;;3.30;2.37;;;22.00;32.90;;;;;;5051363;28;20402;-65
2021/08/09 03:03:37;;;;;;;2.30;2.20;;;22.00;33.00;;;;;;5051368;28;20207;-65
2021/08/09 03:06:05;;;;;;;2.50;2.30;;;22.00;32.90;;;;;;5051162;28;20438;-65
2021/08/09 03:08:31;;;;;;;2.23;2.00;;;22.00;33.00;;;;;;5051376;28;20790;-65
2021/08/09 03:10:57;;;;;;;2.37;2.23;;;22.00;33.10;;;;;;5051341;28;20510;-65
2021/08/09 03:13:23;;;;;;;2.10;2.00;;;22.00;33.10;;;;;;5051340;28;20184;-65
2021/08/09 03:15:50;;;;;;;1.80;1.70;;;22.00;33.10;;;;;;5051072;28;20299;-65
2021/08/09 03:18:16;;;;;;;2.47;2.37;;;22.00;33.10;;;;;;5051143;28;20445;-65
2021/08/09 03:20:42;;;;;;;2.70;2.50;;;22.00;33.10;;;;;;5051287;28;20442;-65
2021/08/09 03:23:08;;;;;;;2.50;2.40;;;22.00;33.20;;;;;;5051061;28;20176;-65
2021/08/09 03:25:34;;;;;;;2.50;2.40;;;22.00;33.20;;;;;;5051155;28;20227;-65
2021/08/09 03:27:59;;;;;;;2.50;2.30;;;22.00;33.20;;;;;;5052154;28;20454;-65
2021/08/09 03:30:29;;;;;;;5.20;2.40;;;22.00;33.20;;;;;;5054876;28;20172;-65
2021/08/09 03:32:54;;;;;;;4.20;2.27;;;22.00;33.20;;;;;;5054762;28;20168;-65
2021/08/09 03:35:21;;;;;;;2.43;2.23;;;22.10;33.70;;;;;;5054470;28;20421;-65
2021/08/09 03:37:47;;;;;;;2.43;1.87;;;22.00;33.20;;;;;;5054578;28;20180;-65
2021/08/09 03:40:13;;;;;;;2.20;2.10;;;22.00;33.30;;;;;;5054658;28;20463;-65
2021/08/09 03:42:38;;;;;;;2.90;2.47;;;22.00;33.40;;;;;;5054583;28;20176;-65
2021/08/09 03:45:05;;;;;;;2.60;2.40;;;22.00;33.20;;;;;;5054444;28;20179;-65
2021/08/09 03:47:30;;;;;;;2.20;2.10;;;22.00;33.20;;;;;;5054454;28;20196;-65
2021/08/09 03:49:56;;;;;;;2.23;2.13;;;22.00;33.10;;;;;;5054244;28;20963;-65
2021/08/09 03:52:22;;;;;;;2.27;2.13;;;22.00;33.10;;;;;;5054186;28;20168;-66
2021/08/09 03:54:47;;;;;;;2.13;2.03;;;22.00;33.10;;;;;;5054461;28;20172;-65
2021/08/09 03:57:12;;;;;;;2.10;2.00;;;22.00;33.10;;;;;;5053924;28;20212;-65
2021/08/09 03:59:38;;;;;;;2.53;2.33;;;22.00;33.10;;;;;;5054314;28;20192;-65
2021/08/09 04:02:04;;;;;;;2.33;2.20;;;22.00;33.10;;;;;;5054159;28;20176;-65
2021/08/09 04:04:29;;;;;;;2.10;2.00;;;22.00;33.00;;;;;;5054157;28;20523;-64
2021/08/09 04:06:55;;;;;;;2.00;1.90;;;22.00;33.10;;;;;;5053639;28;20206;-66
2021/08/09 04:09:20;;;;;;;2.20;2.10;;;22.00;33.90;;;;;;5054339;28;20207;-65
2021/08/09 04:11:46;;;;;;;2.77;2.57;;;22.00;33.30;;;;;;5054016;28;20200;-66
2021/08/09 04:14:11;;;;;;;2.33;2.23;;;22.00;33.20;;;;;;5054007;28;20676;-66
2021/08/09 04:16:37;;;;;;;2.33;2.23;;;22.00;33.20;;;;;;5053501;28;20257;-65
2021/08/09 04:19:02;;;;;;;3.10;2.47;;;22.00;33.10;;;;;;5054003;28;20654;-65
2021/08/09 04:21:53;;;;;;;4.63;2.40;;;22.00;33.10;;;;;;5053734;28;20187;-65
2021/08/09 04:24:18;;;;;;;2.90;2.00;;;22.00;33.20;;;;;;5053806;28;20661;-65
2021/08/09 04:26:44;;;;;;;3.07;2.63;;;22.00;33.20;;;;;;5053282;28;20438;-66
2021/08/09 04:29:09;;;;;;;2.90;2.60;;;22.00;33.40;;;;;;5053795;28;20641;-66
2021/08/09 04:31:41;;;;;;;7.00;3.00;;;22.00;33.40;;;;;;5053611;28;20183;-67
2021/08/09 04:34:06;;;;;;;2.63;2.40;;;22.00;33.60;;;;;;5053549;28;20672;-67
2021/08/09 04:36:32;;;;;;;3.23;2.20;;;22.00;33.70;;;;;;5053083;28;20466;-66
2021/08/09 04:38:57;;;;;;;2.53;2.40;;;22.00;33.70;;;;;;5053123;28;20172;-67
2021/08/09 04:41:23;;;;;;;2.63;2.10;;;22.00;33.90;;;;;;5052918;28;20168;-67
2021/08/09 04:43:48;;;;;;;2.70;2.30;;;22.00;34.00;;;;;;5035617;28;20257;-67
2021/08/09 04:46:14;;;;;;;4.20;3.10;;;22.00;34.00;;;;;;5052947;28;20257;-66
2021/08/09 04:48:39;;;;;;;6.83;2.07;;;22.00;33.70;;;;;;5053051;28;20176;-66
2021/08/09 04:51:05;;;;;;;6.40;2.37;;;22.00;33.50;;;;;;5026240;28;20651;-66
2021/08/09 04:53:30;;;;;;;2.33;2.23;;;22.00;33.50;;;;;;5012756;28;20183;-66
2021/08/09 04:55:56;;;;;;;4.50;2.43;;;22.00;33.30;;;;;;5012598;28;20260;-66
2021/08/09 04:58:21;;;;;;;2.47;2.27;;;22.00;33.20;;;;;;5012462;28;20189;-66
2021/08/09 05:00:47;;;;;;;3.37;2.53;;;22.00;33.20;;;;;;5013265;28;20170;-66
2021/08/09 05:03:13;;;;;;;3.90;2.10;;;22.00;33.20;;;;;;5013233;28;20594;-66
2021/08/09 05:05:41;;;;;;;2.70;2.50;;;22.00;33.20;;;;;;5013200;28;20197;-66
2021/08/09 05:08:07;;;;;;;2.67;2.37;;;22.00;33.30;;;;;;5013176;28;20166;-66
2021/08/09 05:10:32;;;;;;;2.63;2.43;;;22.00;33.30;;;;;;5013195;28;20420;-66
2021/08/09 05:12:58;;;;;;;2.50;2.30;;;22.00;33.30;;;;;;5012876;28;20525;-66
2021/08/09 05:15:25;;;;;;;5.30;2.30;;;22.00;33.50;;;;;;5031446;28;20184;-66
2021/08/09 05:17:50;;;;;;;2.97;2.20;;;22.00;33.40;;;;;;5018640;28;20183;-66
2021/08/09 05:20:16;;;;;;;2.20;2.10;;;22.00;33.40;;;;;;5052627;28;20402;-66
2021/08/09 05:22:41;;;;;;;3.53;2.33;;;22.00;33.50;;;;;;5032042;28;20181;-68
2021/08/09 05:25:10;;;;;;;3.20;2.50;;;22.00;33.50;;;;;;5047136;28;20176;-67
2021/08/09 05:27:36;;;;;;;4.20;2.93;;;22.00;33.50;;;;;;5052235;28;20749;-67
2021/08/09 05:30:02;;;;;;;2.60;2.40;;;22.00;33.50;;;;;;5052074;28;20441;-69
2021/08/09 05:32:29;;;;;;;5.27;2.70;;;22.00;33.50;;;;;;5051997;28;20899;-66
2021/08/09 05:34:56;;;;;;;3.50;2.30;;;22.00;33.50;;;;;;5051790;28;20567;-71
2021/08/09 05:37:21;;;;;;;2.70;2.30;;;22.00;33.40;;;;;;5051622;28;20616;-68
2021/08/09 05:39:47;;;;;;;2.23;2.03;;;22.00;33.40;;;;;;5046315;28;20510;-67
2021/08/09 05:42:12;;;;;;;2.30;2.20;;;22.00;33.30;;;;;;5031777;28;20172;-67
2021/08/09 05:44:38;;;;;;;2.10;2.00;;;22.00;34.00;;;;;;5031629;28;20173;-69
2021/08/09 05:47:03;;;;;;;2.50;2.30;;;22.00;33.40;;;;;;5030505;28;20200;-67
2021/08/09 05:49:29;;;;;;;2.50;1.90;;;22.00;33.30;;;;;;5030498;28;20180;-69
2021/08/09 05:51:55;;;;;;;2.60;2.10;;;22.00;33.40;;;;;;5029093;28;20550;-68
2021/08/09 05:54:20;;;;;;;4.90;2.53;;;22.00;33.50;;;;;;5030708;28;20674;-67
2021/08/09 05:56:46;;;;;;;6.73;2.70;;;22.00;33.60;;;;;;5031498;28;20235;-68
2021/08/09 05:59:11;;;;;;;2.90;2.23;;;22.00;33.80;;;;;;5029002;28;20579;-68
2021/08/09 06:01:37;;;;;;;3.53;2.30;;;22.00;34.00;;;;;;5031024;28;20181;-68
2021/08/09 06:04:02;;;;;;;5.63;2.57;;;22.00;33.90;;;;;;5031921;28;20173;-68
2021/08/09 06:06:28;;;;;;;2.97;2.40;;;21.90;34.00;;;;;;5031149;28;20689;-67
2021/08/09 06:08:53;;;;;;;3.90;2.83;;;22.00;34.10;;;;;;5031662;28;20176;-67
2021/08/09 06:11:21;;;;;;;2.60;2.40;;;22.00;34.10;;;;;;5031743;28;20230;-66
2021/08/09 06:13:47;;;;;;;2.80;2.40;;;22.00;34.70;;;;;;5031756;28;20209;-69
2021/08/09 06:16:12;;;;;;;4.70;2.60;;;22.00;34.00;;;;;;5030941;28;20454;-67
2021/08/09 06:18:38;;;;;;;3.70;2.87;;;22.00;34.00;;;;;;5049593;28;20191;-66
2021/08/09 06:21:04;;;;;;;3.40;2.67;;;22.00;33.80;;;;;;5051615;28;20259;-68
2021/08/09 06:23:30;;;;;;;2.80;2.37;;;22.00;33.70;;;;;;5051549;28;20168;-68
2021/08/09 06:25:56;;;;;;;2.67;2.47;;;22.00;33.50;;;;;;5051179;28;20203;-69
2021/08/09 06:28:24;;;;;;;2.50;2.23;;;22.00;33.30;;;;;;5051487;28;20415;-67
2021/08/09 06:30:50;;;;;;;2.87;2.17;;;22.00;33.40;;;;;;5051073;28;20176;-67
2021/08/09 06:33:16;;;;;;;2.90;2.67;;;22.00;33.20;;;;;;5051289;28;20409;-67
2021/08/09 06:35:41;;;;;;;3.17;2.50;;;22.00;33.10;;;;;;5050918;28;20195;-67
2021/08/09 06:38:08;;;;;;;2.07;1.97;;;22.00;32.90;;;;;;5051219;28;20164;-67
2021/08/09 06:40:35;;;;;;;3.27;2.20;;;22.00;32.80;;;;;;5051301;28;20179;-67
2021/08/09 06:43:01;;;;;;;2.40;2.10;;;22.00;32.80;;;;;;5051167;28;20440;-67
2021/08/09 06:45:27;;;;;;;2.53;2.33;;;22.00;32.80;;;;;;5050711;28;20415;-67
2021/08/09 06:47:53;;;;;;;4.37;2.40;;;22.10;32.90;;;;;;5039396;28;20490;-67
2021/08/09 06:50:18;;;;;;;4.43;2.43;;;22.00;32.50;;;;;;5046221;28;20215;-67
2021/08/09 06:52:44;;;;;;;6.47;3.07;;;22.10;32.70;;;;;;5048378;28;20176;-67
2021/08/09 06:55:10;;;;;;;6.07;2.60;;;22.10;32.60;;;;;;5047726;28;20180;-67
2021/08/09 06:57:35;;;;;;;6.00;2.67;;;22.10;32.60;;;;;;5049107;28;20246;-67
2021/08/09 07:00:02;;;;;;;8.80;3.27;;;22.10;32.30;;;;;;5048275;28;20183;-67
2021/08/09 07:02:28;;;;;;;4.10;2.37;;;22.10;32.10;;;;;;5045808;28;20177;-67
2021/08/09 07:04:53;;;;;;;1.97;1.77;;;22.10;32.00;;;;;;5044090;28;20407;-67
2021/08/09 07:07:19;;;;;;;3.00;2.63;;;22.10;31.70;;;;;;5033102;28;20196;-67
2021/08/09 07:09:45;;;;;;;3.63;2.30;;;22.10;31.80;;;;;;5033612;28;20177;-67
2021/08/09 07:12:10;;;;;;;3.23;2.50;;;22.10;31.70;;;;;;5033211;28;20177;-67
2021/08/09 07:14:36;;;;;;;5.23;2.47;;;22.10;32.00;;;;;;5032905;28;20338;-67
2021/08/09 07:17:02;;;;;;;2.20;2.10;;;22.10;31.90;;;;;;5032725;28;20214;-67
2021/08/09 07:19:28;;;;;;;3.00;2.70;;;22.10;31.70;;;;;;5033265;28;20972;-67
2021/08/09 07:21:54;;;;;;;2.80;2.60;;;22.10;31.80;;;;;;5033300;28;20498;-67
2021/08/09 07:24:53;;;;;;;2.43;2.23;;;22.10;31.90;;;;;;5036511;28;20175;-67
2021/08/09 07:27:19;;;;;;;2.93;2.50;;;22.10;31.90;;;;;;5030702;28;20205;-67
2021/08/09 07:29:44;;;;;;;2.93;2.60;;;22.10;31.90;;;;;;5032354;28;20469;-67
2021/08/09 07:32:10;;;;;;;3.87;2.30;;;22.10;31.90;;;;;;5051150;28;20179;-67
2021/08/09 07:34:35;;;;;;;2.47;2.23;;;22.10;31.70;;;;;;5052772;28;20176;-67
2021/08/09 07:37:01;;;;;;;2.57;2.47;;;22.10;31.70;;;;;;5040662;28;20219;-67
2021/08/09 07:39:27;;;;;;;2.43;2.23;;;22.10;31.80;;;;;;5032535;28;20538;-67
2021/08/09 07:41:53;;;;;;;2.60;2.40;;;22.10;31.80;;;;;;5032698;28;20197;-67
2021/08/09 07:44:18;;;;;;;2.50;2.20;;;22.10;31.70;;;;;;5041358;28;20519;-67
2021/08/09 07:46:44;;;;;;;6.40;3.50;;;22.10;31.70;;;;;;5052175;28;20204;-67
2021/08/09 07:49:09;;;;;;;5.27;2.40;;;22.10;31.70;;;;;;5052682;28;20647;-67
2021/08/09 07:51:35;;;;;;;2.43;2.00;;;22.10;31.80;;;;;;5052013;28;20187;-67
2021/08/09 07:54:20;;;;;;;3.80;2.67;;;22.10;31.80;;;;;;5027422;28;20531;-67
2021/08/09 07:56:46;;;;;;;2.50;2.30;;;22.10;31.80;;;;;;5043362;28;20234;-67
2021/08/09 07:59:12;;;;;;;3.67;2.53;;;22.10;31.70;;;;;;5052318;28;20449;-67
2021/08/09 08:01:38;;;;;;;2.23;2.03;;;22.10;31.80;;;;;;5036947;28;20893;-68
2021/08/09 08:04:03;;;;;;;2.23;2.13;;;22.10;31.70;;;;;;5031914;28;20200;-67
2021/08/09 08:06:29;;;;;;;3.37;2.60;;;22.20;31.80;;;;;;5031195;28;20192;-67
2021/08/09 08:08:54;;;;;;;2.70;1.90;;;22.20;31.80;;;;;;5031545;28;20185;-66
2021/08/09 08:11:20;;;;;;;2.87;2.67;;;22.20;31.80;;;;;;5031615;28;20581;-66
2021/08/09 08:13:45;;;;;;;4.30;2.20;;;22.20;31.80;;;;;;5030543;28;20183;-66
2021/08/09 08:16:11;;;;;;;2.73;2.50;;;22.20;31.80;;;;;;5030474;28;20701;-67
2021/08/09 08:18:37;;;;;;;2.83;2.43;;;22.20;31.80;;;;;;5031795;28;20173;-70
2021/08/09 08:21:02;;;;;;;2.83;2.53;;;22.20;31.80;;;;;;5032479;28;20268;-67
2021/08/09 08:23:29;;;;;;;2.90;2.70;;;22.30;31.90;;;;;;5032024;28;20207;-67
2021/08/09 08:25:54;;;;;;;2.67;2.33;;;22.30;31.90;;;;;;5031593;28;20193;-67
2021/08/09 08:28:20;;;;;;;2.60;2.40;;;22.30;31.90;;;;;;5031660;28;20419;-67
2021/08/09 08:30:45;;;;;;;2.83;2.63;;;22.30;31.90;;;;;;5031855;28;20176;-68
2021/08/09 08:33:11;;;;;;;3.30;2.27;;;22.30;31.90;;;;;;5030587;28;20177;-70
2021/08/09 08:35:36;;;;;;;3.07;2.73;;;22.30;31.90;;;;;;5031378;28;20235;-68
2021/08/09 08:38:02;;;;;;;2.80;2.50;;;22.30;31.90;;;;;;5031584;28;20207;-68
2021/08/09 08:40:28;;;;;;;5.53;2.83;;;22.40;32.00;;;;;;5050699;28;20203;-67
2021/08/09 08:42:53;;;;;;;2.80;2.50;;;22.40;32.00;;;;;;5051629;28;20177;-68
2021/08/09 08:45:21;;;;;;;2.30;2.20;;;22.40;32.00;;;;;;5051321;28;20178;-68
2021/08/09 08:47:47;;;;;;;2.90;2.27;;;22.40;32.00;;;;;;5051906;28;20187;-68
2021/08/09 08:50:16;;;;;;;2.10;2.00;;;22.40;32.10;;;;;;5051240;28;20824;-68
2021/08/09 08:52:47;;;;;;;2.17;1.90;;;22.40;32.10;;;;;;5051628;28;20420;-67
2021/08/09 08:55:13;;;;;;;2.23;2.03;;;22.40;32.10;;;;;;5051255;28;20497;-68
2021/08/09 08:57:38;;;;;;;2.30;2.10;;;22.40;32.00;;;;;;5051105;28;20946;-68
2021/08/09 09:00:05;;;;;;;4.47;2.30;;;22.40;32.00;;;;;;5051160;28;20309;-68
2021/08/09 09:02:38;;;;;;;2.53;2.33;;;22.40;32.00;;;;;;5051355;28;20650;-66
2021/08/09 09:05:16;;;;;;;2.77;2.53;;;22.40;32.00;;;;;;5051505;28;20908;-67
2021/08/09 09:07:47;;;;;;;3.50;2.13;;;22.40;32.00;;;;;;5052787;28;20421;-67
2021/08/09 09:10:18;;;;;;;2.47;2.27;;;22.40;32.00;;;;;;5052925;28;20429;-67
2021/08/09 09:13:03;;;;;;;2.10;2.00;;;22.40;32.00;;;;;;5052612;28;20410;-67
2021/08/09 09:15:29;;;;;;;2.73;2.20;;;22.40;32.00;;;;;;5052468;28;20502;-67
2021/08/09 09:17:55;;;;;;;2.30;2.10;;;22.50;32.00;;;;;;5052511;28;20545;-68
2021/08/09 09:20:31;;;;;;;3.13;2.60;;;22.50;32.10;;;;;;5036169;28;20193;-68
2021/08/09 09:23:18;;;;;;;3.40;2.67;;;22.50;32.10;;;;;;5032255;28;20411;-69
2021/08/09 09:25:45;;;;;;;2.37;2.23;;;22.50;32.00;;;;;;5031607;28;20435;-67
2021/08/09 09:28:33;;;;;;;2.17;2.07;;;22.50;32.00;;;;;;5032709;28;20497;-67
2021/08/09 09:31:06;;;;;;;2.57;2.37;;;22.50;32.00;;;;;;5032924;28;20963;-67
2021/08/09 09:33:32;;;;;;;2.80;2.60;;;22.50;32.00;;;;;;5032227;28;20420;-67
2021/08/09 09:36:02;;;;;;;2.90;2.53;;;22.50;32.00;;;;;;5032252;28;20501;-68
2021/08/09 09:38:28;;;;;;;3.13;2.67;;;22.50;32.00;;;;;;5032644;28;20196;-68
2021/08/09 09:41:05;;;;;;;3.00;2.80;;;22.50;32.00;;;;;;5032355;28;20480;-67
2021/08/09 09:43:38;;;;;;;2.30;2.10;;;22.50;32.00;;;;;;5032228;28;20177;-67
2021/08/09 09:46:03;;;;;;;2.30;2.20;;;22.50;32.00;;;;;;5031975;28;20806;-67
2021/08/09 09:48:37;;;;;;;2.50;2.30;;;22.50;32.00;;;;;;5032609;28;20490;-67
2021/08/09 09:51:10;;;;;;;2.63;2.43;;;22.50;32.00;;;;;;5032231;28;20254;-68
2021/08/09 09:53:35;;;;;;;2.33;2.23;;;22.50;32.00;;;;;;5047776;28;20967;-67
2021/08/09 09:56:01;;;;;;;3.23;3.00;;;22.50;32.00;;;;;;5052046;28;20541;-68
2021/08/09 09:58:29;;;;;;;2.70;2.23;;;22.50;32.00;;;;;;5051945;28;20188;-67
2021/08/09 10:00:55;;;;;;;7.10;2.33;;;22.50;32.00;;;;;;5033870;28;20426;-68
2021/08/09 10:03:21;;;;;;;2.80;2.60;;;22.50;32.00;;;;;;5051432;28;20410;-68
2021/08/09 10:05:48;;;;;;;3.23;2.93;;;22.50;32.00;;;;;;5051463;28;20433;-68
2021/08/09 10:08:15;;;;;;;2.87;2.67;;;22.60;32.10;;;;;;5051986;28;20180;-67
2021/08/09 10:10:48;;;;;;;2.97;2.77;;;22.60;32.10;;;;;;5051645;28;20411;-67
2021/08/09 10:13:20;;;;;;;2.80;2.60;;;22.60;32.10;;;;;;5051766;28;20561;-67
2021/08/09 10:16:00;;;;;;;2.23;2.13;;;22.60;32.20;;;;;;5050905;28;20458;-67
2021/08/09 10:18:28;;;;;;;2.83;2.57;;;22.60;32.10;;;;;;5051700;28;20402;-67
2021/08/09 10:20:55;;;;;;;3.07;2.87;;;22.60;32.10;;;;;;5051289;28;20422;-67
2021/08/09 10:23:45;;;;;;;5.33;2.70;;;22.60;32.10;;;;;;5051390;28;20535;-67
2021/08/09 10:26:30;;;;;;;2.63;2.40;;;22.60;32.20;;;;;;5050780;28;20434;-68
2021/08/09 10:28:55;;;;;;;2.63;2.27;;;22.60;32.50;;;;;;5051421;28;20417;-67
2021/08/09 10:31:52;;;;;;;2.47;2.30;;;22.60;32.10;;;;;;5051593;28;20406;-69
2021/08/09 10:34:37;;;;;;;2.40;2.20;;;22.60;32.10;;;;;;5051429;28;20215;-67
2021/08/09 10:37:10;;;;;;;2.80;2.60;;;22.60;32.00;;;;;;5051276;28;20462;-68
2021/08/09 10:39:59;;;;;;;2.40;2.30;;;22.60;32.00;;;;;;5055288;28;20414;-67
2021/08/09 10:42:42;;;;;;;2.20;2.10;;;22.60;31.90;;;;;;5055555;28;20410;-68
2021/08/09 10:45:13;;;;;;;3.57;3.27;;;22.60;32.00;;;;;;5055364;28;20410;-68
2021/08/09 10:47:45;;;;;;;2.40;2.10;;;22.60;32.10;;;;;;5054974;28;20406;-67
2021/08/09 10:50:26;;;;;;;2.90;2.37;;;22.60;32.10;;;;;;5055497;28;20402;-67
2021/08/09 10:52:52;;;;;;;2.70;2.50;;;22.60;32.20;;;;;;5055335;28;20406;-68
2021/08/09 10:55:30;;;;;;;2.40;2.30;;;22.60;32.10;;;;;;5037165;28;20420;-68
2021/08/09 10:58:03;;;;;;;4.73;2.73;;;22.60;32.20;;;;;;5055022;28;20544;-68
2021/08/09 11:00:38;;;;;;;2.40;2.20;;;22.60;32.10;;;;;;5055263;28;20413;-68
2021/08/09 11:03:05;;;;;;;7.27;2.60;;;22.60;32.10;;;;;;5040977;28;20479;-68
2021/08/09 11:05:32;;;;;;;2.33;2.23;;;22.70;32.30;;;;;;5035058;28;20408;-68
2021/08/09 11:08:27;;;;;;;3.03;2.30;;;22.60;32.20;;;;;;5035011;28;20422;-68
2021/08/09 11:10:55;;;;;;;2.90;2.30;;;22.60;32.10;;;;;;5034971;28;20430;-67
2021/08/09 11:13:45;;;;;;;3.30;2.33;;;22.60;32.10;;;;;;5035287;28;20411;-68
2021/08/09 11:16:26;;;;;;;3.50;2.47;;;22.70;32.20;;;;;;5024480;28;20550;-67
2021/08/09 11:18:58;;;;;;;2.33;2.17;;;22.60;32.20;;;;;;5034578;28;20769;-67
2021/08/09 11:21:25;;;;;;;2.63;2.50;;;22.60;32.10;;;;;;5034930;28;20545;-69
2021/08/09 11:23:50;;;;;;;4.00;2.47;;;22.60;32.10;;;;;;5034956;28;20407;-67
2021/08/09 11:26:25;;;;;;;2.27;2.10;;;22.60;32.20;;;;;;5034598;28;20443;-66
2021/08/09 11:29:05;;;;;;;2.17;2.07;;;22.60;32.10;;;;;;5034910;28;20156;-67
2021/08/09 11:34:59;;;;;;;4.57;2.23;;;22.60;32.20;;;;;;5039505;28;20402;-67
2021/08/09 11:37:25;;;;;;;3.57;2.50;;;22.60;32.10;;;;;;5036851;28;20469;-67
2021/08/09 11:39:50;;;;;;;2.10;2.00;;;22.70;32.20;;;;;;5033507;28;20769;-67
2021/08/09 11:42:16;;;;;;;2.30;2.10;;;22.70;32.20;;;;;;5034478;28;20184;-66
2021/08/09 11:44:41;;;;;;;3.17;1.87;;;22.70;32.20;;;;;;5043755;28;20656;-67
2021/08/09 11:47:07;;;;;;;3.27;2.33;;;22.70;32.20;;;;;;5035257;28;20232;-66
2021/08/09 11:49:32;;;;;;;2.70;2.30;;;22.70;32.20;;;;;;5053991;28;20180;-67
2021/08/09 11:51:59;;;;;;;3.23;2.93;;;22.70;32.20;;;;;;5054344;28;20495;-67
2021/08/09 11:54:37;;;;;;;2.13;2.03;;;22.70;32.20;;;;;;5054412;28;20699;-68
2021/08/09 11:57:03;;;;;;;2.43;2.27;;;22.70;32.20;;;;;;5047633;28;20481;-67
2021/08/09 11:59:29;;;;;;;3.00;2.70;;;22.70;32.30;;;;;;5033935;28;20937;-68
2021/08/09 12:02:06;;;;;;;2.73;2.47;;;22.70;32.20;;;;;;5033621;28;20651;-68
2021/08/09 12:04:42;;;;;;;2.47;2.30;;;22.70;32.20;;;;;;5033794;28;20407;-67
2021/08/09 12:07:18;;;;;;;2.00;1.90;;;22.60;32.10;;;;;;5032174;28;20422;-67
2021/08/09 12:09:44;;;;;;;3.70;2.00;;;22.70;32.20;;;;;;5019230;28;20478;-66
2021/08/09 12:12:15;;;;;;;2.97;2.50;;;22.70;32.20;;;;;;5033516;28;20412;-67
2021/08/09 12:14:41;;;;;;;3.77;2.47;;;22.70;32.20;;;;;;5030752;28;20415;-66
2021/08/09 12:17:18;;;;;;;4.87;2.30;;;22.70;32.20;;;;;;5033372;28;20861;-66
2021/08/09 12:19:46;;;;;;;4.30;2.80;;;22.70;32.30;;;;;;5031578;28;20419;-67
2021/08/09 12:22:17;;;;;;;3.07;2.50;;;22.70;32.20;;;;;;5033472;28;20552;-64
2021/08/09 12:25:01;;;;;;;2.43;2.23;;;22.70;32.20;;;;;;5030976;28;20412;-66
2021/08/09 12:27:28;;;;;;;5.90;2.63;;;22.70;32.20;;;;;;5031844;28;20431;-67
2021/08/09 12:30:03;;;;;;;2.67;2.33;;;22.70;32.30;;;;;;5032875;28;20434;-67
2021/08/09 12:32:29;;;;;;;4.60;2.40;;;22.70;32.30;;;;;;5033186;28;20497;-65
2021/08/09 12:34:55;;;;;;;5.40;2.20;;;22.70;32.00;;;;;;5033189;28;20497;-67
2021/08/09 12:37:21;;;;;;;3.10;2.40;;;22.70;32.00;;;;;;5032843;28;20451;-67
2021/08/09 12:39:47;;;;;;;3.17;2.50;;;22.80;32.00;;;;;;5033114;28;20426;-66
2021/08/09 12:42:21;;;;;;;2.60;2.40;;;22.70;32.00;;;;;;5018957;28;20693;-67
2021/08/09 12:44:50;;;;;;;5.63;3.10;;;22.80;31.90;;;;;;5033196;28;20404;-66
2021/08/09 12:47:16;;;;;;;3.23;2.63;;;22.70;31.70;;;;;;5032959;28;20495;-67
2021/08/09 12:49:42;;;;;;;2.77;2.30;;;22.80;31.80;;;;;;5033518;28;20872;-65
2021/08/09 12:52:08;;;;;;;3.07;2.80;;;22.80;31.70;;;;;;5032961;28;20181;-67
2021/08/09 12:54:33;;;;;;;3.33;3.13;;;22.70;31.50;;;;;;5041632;28;20446;-67
2021/08/09 12:57:00;;;;;;;2.77;2.50;;;22.70;31.40;;;;;;5052904;28;20549;-66
2021/08/09 12:59:27;;;;;;;3.73;2.60;;;22.70;31.30;;;;;;5053003;28;20180;-68
2021/08/09 13:01:53;;;;;;;5.90;2.77;;;22.70;31.30;;;;;;5052387;28;20403;-67